sensor_id;sensor_type;location;lat;lon;timestamp;P1;P2;P0
55518;PMS5003;41724;51.176;-0.708;2024-01-07T00:01:53;17;17;
55518;PMS5003;41724;51.176;-0.708;2024-01-07T00:04:20;24;24;
55518;PMS5003;41724;51.176;-0.708;2024-01-07T00:06:47;17;16;
55518;PMS5003;41724;51.176;-0.708;2024-01-07T00:09:15;19;17;
55518;PMS5003;41724;51.176;-0.708;2024-01-07T00:11:43;17;15;
55518;PMS5003;41724;51.176;-0.708;2024-01-07T00:14:10;17;17;
55518;PMS5003;41724;51.176;-0.708;2024-01-07T00:16:37;17;16;
55518;PMS5003;41724;51.176;-0.708;2024-01-07T00:19:05;18;17;
55518;PMS5003;41724;51.176;-0.708;2024-01-07T00:21:32;15;14;
55518;PMS5003;41724;51.176;-0.708;2024-01-07T00:24:00;19;17;
55518;PMS5003;41724;51.176;-0.708;2024-01-07T00:26:26;17;15;
55518;PMS5003;41724;51.176;-0.708;2024-01-07T00:28:54;18;18;
55518;PMS5003;41724;51.176;-0.708;2024-01-07T00:31:21;15;14;
55518;PMS5003;41724;51.176;-0.708;2024-01-07T00:33:48;12;12;
55518;PMS5003;41724;51.176;-0.708;2024-01-07T00:36:15;12;12;
55518;PMS5003;41724;51.176;-0.708;2024-01-07T00:38:42;13;12;
55518;PMS5003;41724;51.176;-0.708;2024-01-07T00:41:09;14;13;
55518;PMS5003;41724;51.176;-0.708;2024-01-07T00:43:36;16;15;
55518;PMS5003;41724;51.176;-0.708;2024-01-07T00:46:04;15;12;
55518;PMS5003;41724;51.176;-0.708;2024-01-07T00:48:31;10;10;
55518;PMS5003;41724;51.176;-0.708;2024-01-07T00:50:58;8;8;
55518;PMS5003;41724;51.176;-0.708;2024-01-07T00:53:25;8;7;
55518;PMS5003;41724;51.176;-0.708;2024-01-07T00:55:52;10;7;
55518;PMS5003;41724;51.176;-0.708;2024-01-07T00:58:19;4;4;
55518;PMS5003;41724;51.176;-0.708;2024-01-07T01:00:47;6;5;
55518;PMS5003;41724;51.176;-0.708;2024-01-07T01:03:14;4;4;
55518;PMS5003;41724;51.176;-0.708;2024-01-07T01:05:41;6;6;
55518;PMS5003;41724;51.176;-0.708;2024-01-07T01:08:08;4;4;
55518;PMS5003;41724;51.176;-0.708;2024-01-07T01:10:35;6;4;
55518;PMS5003;41724;51.176;-0.708;2024-01-07T01:13:03;5;5;
55518;PMS5003;41724;51.176;-0.708;2024-01-07T01:15:30;5;4;
55518;PMS5003;41724;51.176;-0.708;2024-01-07T01:17:57;4;4;
55518;PMS5003;41724;51.176;-0.708;2024-01-07T01:20:24;3;3;
55518;PMS5003;41724;51.176;-0.708;2024-01-07T01:22:52;5;4;
55518;PMS5003;41724;51.176;-0.708;2024-01-07T01:25:19;3;3;
55518;PMS5003;41724;51.176;-0.708;2024-01-07T01:27:46;2;2;
55518;PMS5003;41724;51.176;-0.708;2024-01-07T01:30:13;4;4;
55518;PMS5003;41724;51.176;-0.708;2024-01-07T01:32:41;3;3;
55518;PMS5003;41724;51.176;-0.708;2024-01-07T01:35:08;3;3;
55518;PMS5003;41724;51.176;-0.708;2024-01-07T01:37:36;4;4;
55518;PMS5003;41724;51.176;-0.708;2024-01-07T01:40:03;3;3;
55518;PMS5003;41724;51.176;-0.708;2024-01-07T01:42:31;4;4;
55518;PMS5003;41724;51.176;-0.708;2024-01-07T01:44:59;4;3;
55518;PMS5003;41724;51.176;-0.708;2024-01-07T01:47:26;4;3;
55518;PMS5003;41724;51.176;-0.708;2024-01-07T01:49:53;3;3;
55518;PMS5003;41724;51.176;-0.708;2024-01-07T01:52:20;3;3;
55518;PMS5003;41724;51.176;-0.708;2024-01-07T01:54:48;3;2;
55518;PMS5003;41724;51.176;-0.708;2024-01-07T01:57:17;3;3;
55518;PMS5003;41724;51.176;-0.708;2024-01-07T01:59:48;3;3;
55518;PMS5003;41724;51.176;-0.708;2024-01-07T02:02:15;2;2;
55518;PMS5003;41724;51.176;-0.708;2024-01-07T02:04:42;3;2;
55518;PMS5003;41724;51.176;-0.708;2024-01-07T02:07:10;4;3;
55518;PMS5003;41724;51.176;-0.708;2024-01-07T02:09:37;2;2;
55518;PMS5003;41724;51.176;-0.708;2024-01-07T02:12:04;2;2;
55518;PMS5003;41724;51.176;-0.708;2024-01-07T02:14:32;2;2;
55518;PMS5003;41724;51.176;-0.708;2024-01-07T02:16:59;3;3;
55518;PMS5003;41724;51.176;-0.708;2024-01-07T02:19:27;4;3;
55518;PMS5003;41724;51.176;-0.708;2024-01-07T02:21:54;4;3;
55518;PMS5003;41724;51.176;-0.708;2024-01-07T02:24:21;2;2;
55518;PMS5003;41724;51.176;-0.708;2024-01-07T02:26:48;3;3;
55518;PMS5003;41724;51.176;-0.708;2024-01-07T02:29:15;3;3;
55518;PMS5003;41724;51.176;-0.708;2024-01-07T02:31:43;2;1;
55518;PMS5003;41724;51.176;-0.708;2024-01-07T02:34:10;3;2;
55518;PMS5003;41724;51.176;-0.708;2024-01-07T02:36:37;2;2;
55518;PMS5003;41724;51.176;-0.708;2024-01-07T02:39:04;4;3;
55518;PMS5003;41724;51.176;-0.708;2024-01-07T02:41:32;3;2;
55518;PMS5003;41724;51.176;-0.708;2024-01-07T02:44:00;4;4;
55518;PMS5003;41724;51.176;-0.708;2024-01-07T02:46:27;2;2;
55518;PMS5003;41724;51.176;-0.708;2024-01-07T02:48:54;2;2;
55518;PMS5003;41724;51.176;-0.708;2024-01-07T02:51:21;3;2;
55518;PMS5003;41724;51.176;-0.708;2024-01-07T02:53:49;2;2;
55518;PMS5003;41724;51.176;-0.708;2024-01-07T02:56:16;2;2;
55518;PMS5003;41724;51.176;-0.708;2024-01-07T02:58:43;1;1;
55518;PMS5003;41724;51.176;-0.708;2024-01-07T03:01:10;3;3;
55518;PMS5003;41724;51.176;-0.708;2024-01-07T03:03:37;2;2;
55518;PMS5003;41724;51.176;-0.708;2024-01-07T03:06:05;2;2;
55518;PMS5003;41724;51.176;-0.708;2024-01-07T03:08:32;3;3;
55518;PMS5003;41724;51.176;-0.708;2024-01-07T03:11:04;3;2;
55518;PMS5003;41724;51.176;-0.708;2024-01-07T03:13:31;1;1;
55518;PMS5003;41724;51.176;-0.708;2024-01-07T03:15:59;1;1;
55518;PMS5003;41724;51.176;-0.708;2024-01-07T03:18:26;2;2;
55518;PMS5003;41724;51.176;-0.708;2024-01-07T03:20:54;3;3;
55518;PMS5003;41724;51.176;-0.708;2024-01-07T03:23:21;2;2;
55518;PMS5003;41724;51.176;-0.708;2024-01-07T03:25:48;1;1;
55518;PMS5003;41724;51.176;-0.708;2024-01-07T03:28:16;3;2;
55518;PMS5003;41724;51.176;-0.708;2024-01-07T03:30:43;3;3;
55518;PMS5003;41724;51.176;-0.708;2024-01-07T03:33:10;2;2;
55518;PMS5003;41724;51.176;-0.708;2024-01-07T03:35:37;3;2;
55518;PMS5003;41724;51.176;-0.708;2024-01-07T03:38:05;3;3;
55518;PMS5003;41724;51.176;-0.708;2024-01-07T03:40:32;3;3;
55518;PMS5003;41724;51.176;-0.708;2024-01-07T03:42:59;4;3;
55518;PMS5003;41724;51.176;-0.708;2024-01-07T03:45:27;2;2;
55518;PMS5003;41724;51.176;-0.708;2024-01-07T03:47:54;3;3;
55518;PMS5003;41724;51.176;-0.708;2024-01-07T03:50:21;3;3;
55518;PMS5003;41724;51.176;-0.708;2024-01-07T03:52:48;3;2;
55518;PMS5003;41724;51.176;-0.708;2024-01-07T03:55:16;3;3;
55518;PMS5003;41724;51.176;-0.708;2024-01-07T03:57:43;6;5;
55518;PMS5003;41724;51.176;-0.708;2024-01-07T04:00:10;4;4;
55518;PMS5003;41724;51.176;-0.708;2024-01-07T04:02:37;4;4;
55518;PMS5003;41724;51.176;-0.708;2024-01-07T04:05:04;3;3;
55518;PMS5003;41724;51.176;-0.708;2024-01-07T04:07:32;2;2;
55518;PMS5003;41724;51.176;-0.708;2024-01-07T04:09:59;2;2;
55518;PMS5003;41724;51.176;-0.708;2024-01-07T04:12:26;1;1;
55518;PMS5003;41724;51.176;-0.708;2024-01-07T04:14:53;4;3;
55518;PMS5003;41724;51.176;-0.708;2024-01-07T04:17:21;4;4;
55518;PMS5003;41724;51.176;-0.708;2024-01-07T04:19:48;4;4;
55518;PMS5003;41724;51.176;-0.708;2024-01-07T04:22:15;2;2;
55518;PMS5003;41724;51.176;-0.708;2024-01-07T04:24:42;3;3;
55518;PMS5003;41724;51.176;-0.708;2024-01-07T04:27:10;3;3;
55518;PMS5003;41724;51.176;-0.708;2024-01-07T04:29:37;2;2;
55518;PMS5003;41724;51.176;-0.708;2024-01-07T04:32:04;4;2;
55518;PMS5003;41724;51.176;-0.708;2024-01-07T04:34:31;1;1;
55518;PMS5003;41724;51.176;-0.708;2024-01-07T04:36:59;3;3;
55518;PMS5003;41724;51.176;-0.708;2024-01-07T04:39:26;4;4;
55518;PMS5003;41724;51.176;-0.708;2024-01-07T04:41:53;3;3;
55518;PMS5003;41724;51.176;-0.708;2024-01-07T04:44:20;3;3;
55518;PMS5003;41724;51.176;-0.708;2024-01-07T04:46:48;2;2;
55518;PMS5003;41724;51.176;-0.708;2024-01-07T04:49:15;2;2;
55518;PMS5003;41724;51.176;-0.708;2024-01-07T04:51:42;2;2;
55518;PMS5003;41724;51.176;-0.708;2024-01-07T04:54:09;2;2;
55518;PMS5003;41724;51.176;-0.708;2024-01-07T04:56:37;4;3;
55518;PMS5003;41724;51.176;-0.708;2024-01-07T04:59:04;2;2;
55518;PMS5003;41724;51.176;-0.708;2024-01-07T05:01:32;2;2;
55518;PMS5003;41724;51.176;-0.708;2024-01-07T05:03:59;2;2;
55518;PMS5003;41724;51.176;-0.708;2024-01-07T05:06:26;3;2;
55518;PMS5003;41724;51.176;-0.708;2024-01-07T05:08:54;2;2;
55518;PMS5003;41724;51.176;-0.708;2024-01-07T05:11:21;3;3;
55518;PMS5003;41724;51.176;-0.708;2024-01-07T05:13:48;4;3;
55518;PMS5003;41724;51.176;-0.708;2024-01-07T05:16:19;3;2;
55518;PMS5003;41724;51.176;-0.708;2024-01-07T05:18:46;3;3;
55518;PMS5003;41724;51.176;-0.708;2024-01-07T05:21:14;3;3;
55518;PMS5003;41724;51.176;-0.708;2024-01-07T05:23:41;3;2;
55518;PMS5003;41724;51.176;-0.708;2024-01-07T05:26:08;1;1;
55518;PMS5003;41724;51.176;-0.708;2024-01-07T05:28:36;2;2;
55518;PMS5003;41724;51.176;-0.708;2024-01-07T05:31:03;3;3;
55518;PMS5003;41724;51.176;-0.708;2024-01-07T05:33:30;2;2;
55518;PMS5003;41724;51.176;-0.708;2024-01-07T05:35:57;2;2;
55518;PMS5003;41724;51.176;-0.708;2024-01-07T05:38:24;1;1;
55518;PMS5003;41724;51.176;-0.708;2024-01-07T05:40:51;2;2;
55518;PMS5003;41724;51.176;-0.708;2024-01-07T05:43:19;2;1;
55518;PMS5003;41724;51.176;-0.708;2024-01-07T05:45:46;2;1;
55518;PMS5003;41724;51.176;-0.708;2024-01-07T05:48:13;2;1;
55518;PMS5003;41724;51.176;-0.708;2024-01-07T05:50:40;0;0;
55518;PMS5003;41724;51.176;-0.708;2024-01-07T05:53:08;2;2;
55518;PMS5003;41724;51.176;-0.708;2024-01-07T05:55:35;3;2;
55518;PMS5003;41724;51.176;-0.708;2024-01-07T05:58:02;2;1;
55518;PMS5003;41724;51.176;-0.708;2024-01-07T06:00:30;2;1;
55518;PMS5003;41724;51.176;-0.708;2024-01-07T06:02:57;3;2;
55518;PMS5003;41724;51.176;-0.708;2024-01-07T06:05:24;1;1;
55518;PMS5003;41724;51.176;-0.708;2024-01-07T06:07:51;2;1;
55518;PMS5003;41724;51.176;-0.708;2024-01-07T06:10:19;2;2;
55518;PMS5003;41724;51.176;-0.708;2024-01-07T06:12:46;2;2;
55518;PMS5003;41724;51.176;-0.708;2024-01-07T06:15:13;2;1;
55518;PMS5003;41724;51.176;-0.708;2024-01-07T06:17:41;1;1;
55518;PMS5003;41724;51.176;-0.708;2024-01-07T06:20:08;1;1;
55518;PMS5003;41724;51.176;-0.708;2024-01-07T06:22:36;1;1;
55518;PMS5003;41724;51.176;-0.708;2024-01-07T06:25:04;1;1;
55518;PMS5003;41724;51.176;-0.708;2024-01-07T06:27:32;3;2;
55518;PMS5003;41724;51.176;-0.708;2024-01-07T06:29:59;2;1;
55518;PMS5003;41724;51.176;-0.708;2024-01-07T06:32:26;2;2;
55518;PMS5003;41724;51.176;-0.708;2024-01-07T06:34:54;2;1;
55518;PMS5003;41724;51.176;-0.708;2024-01-07T06:37:21;1;1;
55518;PMS5003;41724;51.176;-0.708;2024-01-07T06:39:48;2;1;
55518;PMS5003;41724;51.176;-0.708;2024-01-07T06:42:16;2;2;
55518;PMS5003;41724;51.176;-0.708;2024-01-07T06:44:43;1;1;
55518;PMS5003;41724;51.176;-0.708;2024-01-07T06:47:10;1;1;
55518;PMS5003;41724;51.176;-0.708;2024-01-07T06:49:38;2;1;
55518;PMS5003;41724;51.176;-0.708;2024-01-07T06:52:05;1;1;
55518;PMS5003;41724;51.176;-0.708;2024-01-07T06:54:32;1;0;
55518;PMS5003;41724;51.176;-0.708;2024-01-07T06:57:00;2;2;
55518;PMS5003;41724;51.176;-0.708;2024-01-07T06:59:27;1;1;
55518;PMS5003;41724;51.176;-0.708;2024-01-07T07:01:54;2;2;
55518;PMS5003;41724;51.176;-0.708;2024-01-07T07:04:21;2;2;
55518;PMS5003;41724;51.176;-0.708;2024-01-07T07:06:49;2;2;
55518;PMS5003;41724;51.176;-0.708;2024-01-07T07:09:16;2;2;
55518;PMS5003;41724;51.176;-0.708;2024-01-07T07:11:43;2;2;
55518;PMS5003;41724;51.176;-0.708;2024-01-07T07:14:11;2;1;
55518;PMS5003;41724;51.176;-0.708;2024-01-07T07:16:38;1;1;
55518;PMS5003;41724;51.176;-0.708;2024-01-07T07:19:05;3;1;
55518;PMS5003;41724;51.176;-0.708;2024-01-07T07:21:32;2;2;
55518;PMS5003;41724;51.176;-0.708;2024-01-07T07:24:00;3;3;
55518;PMS5003;41724;51.176;-0.708;2024-01-07T07:26:27;3;3;
55518;PMS5003;41724;51.176;-0.708;2024-01-07T07:28:54;2;2;
55518;PMS5003;41724;51.176;-0.708;2024-01-07T07:31:22;2;2;
55518;PMS5003;41724;51.176;-0.708;2024-01-07T07:33:49;2;2;
55518;PMS5003;41724;51.176;-0.708;2024-01-07T07:36:16;3;3;
55518;PMS5003;41724;51.176;-0.708;2024-01-07T07:38:43;3;3;
55518;PMS5003;41724;51.176;-0.708;2024-01-07T07:41:11;2;2;
55518;PMS5003;41724;51.176;-0.708;2024-01-07T07:43:38;3;3;
55518;PMS5003;41724;51.176;-0.708;2024-01-07T07:46:05;2;2;
55518;PMS5003;41724;51.176;-0.708;2024-01-07T07:48:32;2;2;
55518;PMS5003;41724;51.176;-0.708;2024-01-07T07:51:00;3;3;
55518;PMS5003;41724;51.176;-0.708;2024-01-07T07:53:27;2;2;
55518;PMS5003;41724;51.176;-0.708;2024-01-07T07:55:54;2;2;
55518;PMS5003;41724;51.176;-0.708;2024-01-07T07:58:21;2;2;
55518;PMS5003;41724;51.176;-0.708;2024-01-07T08:00:49;3;2;
55518;PMS5003;41724;51.176;-0.708;2024-01-07T08:03:16;2;2;
55518;PMS5003;41724;51.176;-0.708;2024-01-07T08:05:43;2;2;
55518;PMS5003;41724;51.176;-0.708;2024-01-07T08:08:10;1;1;
55518;PMS5003;41724;51.176;-0.708;2024-01-07T08:10:38;1;1;
55518;PMS5003;41724;51.176;-0.708;2024-01-07T08:13:05;1;1;
55518;PMS5003;41724;51.176;-0.708;2024-01-07T08:15:32;2;2;
55518;PMS5003;41724;51.176;-0.708;2024-01-07T08:18:00;2;2;
55518;PMS5003;41724;51.176;-0.708;2024-01-07T08:20:27;2;1;
55518;PMS5003;41724;51.176;-0.708;2024-01-07T08:22:54;2;1;
55518;PMS5003;41724;51.176;-0.708;2024-01-07T08:25:21;3;3;
55518;PMS5003;41724;51.176;-0.708;2024-01-07T08:27:49;1;1;
55518;PMS5003;41724;51.176;-0.708;2024-01-07T08:30:16;2;2;
55518;PMS5003;41724;51.176;-0.708;2024-01-07T08:32:43;3;3;
55518;PMS5003;41724;51.176;-0.708;2024-01-07T08:35:11;3;3;
55518;PMS5003;41724;51.176;-0.708;2024-01-07T08:37:38;2;2;
55518;PMS5003;41724;51.176;-0.708;2024-01-07T08:40:06;2;2;
55518;PMS5003;41724;51.176;-0.708;2024-01-07T08:42:34;3;2;
55518;PMS5003;41724;51.176;-0.708;2024-01-07T08:45:01;3;3;
55518;PMS5003;41724;51.176;-0.708;2024-01-07T08:47:28;4;4;
55518;PMS5003;41724;51.176;-0.708;2024-01-07T08:49:55;5;5;
55518;PMS5003;41724;51.176;-0.708;2024-01-07T08:52:23;7;5;
55518;PMS5003;41724;51.176;-0.708;2024-01-07T08:54:50;5;5;
55518;PMS5003;41724;51.176;-0.708;2024-01-07T08:57:17;4;4;
55518;PMS5003;41724;51.176;-0.708;2024-01-07T08:59:45;3;3;
55518;PMS5003;41724;51.176;-0.708;2024-01-07T09:02:12;2;2;
55518;PMS5003;41724;51.176;-0.708;2024-01-07T09:04:39;2;2;
55518;PMS5003;41724;51.176;-0.708;2024-01-07T09:07:07;2;2;
55518;PMS5003;41724;51.176;-0.708;2024-01-07T09:09:34;4;3;
55518;PMS5003;41724;51.176;-0.708;2024-01-07T09:12:01;5;4;
55518;PMS5003;41724;51.176;-0.708;2024-01-07T09:14:29;3;3;
55518;PMS5003;41724;51.176;-0.708;2024-01-07T09:16:57;3;2;
55518;PMS5003;41724;51.176;-0.708;2024-01-07T09:19:24;3;2;
55518;PMS5003;41724;51.176;-0.708;2024-01-07T09:21:51;2;2;
55518;PMS5003;41724;51.176;-0.708;2024-01-07T09:24:19;3;2;
55518;PMS5003;41724;51.176;-0.708;2024-01-07T09:26:46;3;3;
55518;PMS5003;41724;51.176;-0.708;2024-01-07T09:29:13;5;5;
55518;PMS5003;41724;51.176;-0.708;2024-01-07T09:31:41;4;3;
55518;PMS5003;41724;51.176;-0.708;2024-01-07T09:34:08;4;4;
55518;PMS5003;41724;51.176;-0.708;2024-01-07T09:36:35;2;2;
55518;PMS5003;41724;51.176;-0.708;2024-01-07T09:39:02;2;2;
55518;PMS5003;41724;51.176;-0.708;2024-01-07T09:41:30;2;2;
55518;PMS5003;41724;51.176;-0.708;2024-01-07T09:43:57;3;2;
55518;PMS5003;41724;51.176;-0.708;2024-01-07T09:46:25;1;1;
55518;PMS5003;41724;51.176;-0.708;2024-01-07T09:48:55;4;3;
55518;PMS5003;41724;51.176;-0.708;2024-01-07T09:51:22;3;3;
55518;PMS5003;41724;51.176;-0.708;2024-01-07T09:53:50;1;1;
55518;PMS5003;41724;51.176;-0.708;2024-01-07T09:56:23;3;3;
55518;PMS5003;41724;51.176;-0.708;2024-01-07T09:58:52;2;2;
55518;PMS5003;41724;51.176;-0.708;2024-01-07T10:01:19;3;3;
55518;PMS5003;41724;51.176;-0.708;2024-01-07T10:03:46;2;2;
55518;PMS5003;41724;51.176;-0.708;2024-01-07T10:06:14;3;3;
55518;PMS5003;41724;51.176;-0.708;2024-01-07T10:08:46;4;4;
55518;PMS5003;41724;51.176;-0.708;2024-01-07T10:11:13;1;1;
55518;PMS5003;41724;51.176;-0.708;2024-01-07T10:13:41;2;2;
55518;PMS5003;41724;51.176;-0.708;2024-01-07T10:16:08;9;6;
55518;PMS5003;41724;51.176;-0.708;2024-01-07T10:18:35;2;2;
55518;PMS5003;41724;51.176;-0.708;2024-01-07T10:21:03;2;2;
55518;PMS5003;41724;51.176;-0.708;2024-01-07T10:23:32;3;3;
55518;PMS5003;41724;51.176;-0.708;2024-01-07T10:25:59;3;3;
55518;PMS5003;41724;51.176;-0.708;2024-01-07T10:28:27;2;1;
55518;PMS5003;41724;51.176;-0.708;2024-01-07T10:30:54;1;1;
55518;PMS5003;41724;51.176;-0.708;2024-01-07T10:33:21;3;2;
55518;PMS5003;41724;51.176;-0.708;2024-01-07T10:35:51;1;1;
55518;PMS5003;41724;51.176;-0.708;2024-01-07T10:38:21;1;1;
55518;PMS5003;41724;51.176;-0.708;2024-01-07T10:40:49;1;1;
55518;PMS5003;41724;51.176;-0.708;2024-01-07T10:43:18;1;1;
55518;PMS5003;41724;51.176;-0.708;2024-01-07T10:45:48;1;1;
55518;PMS5003;41724;51.176;-0.708;2024-01-07T10:48:17;2;2;
55518;PMS5003;41724;51.176;-0.708;2024-01-07T10:50:45;2;1;
55518;PMS5003;41724;51.176;-0.708;2024-01-07T10:53:15;1;1;
55518;PMS5003;41724;51.176;-0.708;2024-01-07T10:55:44;2;2;
55518;PMS5003;41724;51.176;-0.708;2024-01-07T10:58:20;2;2;
55518;PMS5003;41724;51.176;-0.708;2024-01-07T11:00:47;2;2;
55518;PMS5003;41724;51.176;-0.708;2024-01-07T11:03:18;4;3;
55518;PMS5003;41724;51.176;-0.708;2024-01-07T11:05:57;1;1;
55518;PMS5003;41724;51.176;-0.708;2024-01-07T11:08:32;2;2;
55518;PMS5003;41724;51.176;-0.708;2024-01-07T11:11:07;2;2;
55518;PMS5003;41724;51.176;-0.708;2024-01-07T11:13:41;0;0;
55518;PMS5003;41724;51.176;-0.708;2024-01-07T11:16:08;2;1;
55518;PMS5003;41724;51.176;-0.708;2024-01-07T11:18:38;1;1;
55518;PMS5003;41724;51.176;-0.708;2024-01-07T11:21:05;2;2;
55518;PMS5003;41724;51.176;-0.708;2024-01-07T11:23:33;2;2;
55518;PMS5003;41724;51.176;-0.708;2024-01-07T11:26:01;2;2;
55518;PMS5003;41724;51.176;-0.708;2024-01-07T11:28:45;1;1;
55518;PMS5003;41724;51.176;-0.708;2024-01-07T11:31:13;7;4;
55518;PMS5003;41724;51.176;-0.708;2024-01-07T11:33:42;2;2;
55518;PMS5003;41724;51.176;-0.708;2024-01-07T11:36:10;2;2;
55518;PMS5003;41724;51.176;-0.708;2024-01-07T11:38:38;1;1;
55518;PMS5003;41724;51.176;-0.708;2024-01-07T11:41:08;3;3;
55518;PMS5003;41724;51.176;-0.708;2024-01-07T11:43:37;2;2;
55518;PMS5003;41724;51.176;-0.708;2024-01-07T11:46:04;2;2;
55518;PMS5003;41724;51.176;-0.708;2024-01-07T11:48:31;2;2;
55518;PMS5003;41724;51.176;-0.708;2024-01-07T11:50:58;2;2;
55518;PMS5003;41724;51.176;-0.708;2024-01-07T11:53:26;2;2;
55518;PMS5003;41724;51.176;-0.708;2024-01-07T11:55:53;2;2;
55518;PMS5003;41724;51.176;-0.708;2024-01-07T11:58:20;1;1;
55518;PMS5003;41724;51.176;-0.708;2024-01-07T12:00:47;3;2;
55518;PMS5003;41724;51.176;-0.708;2024-01-07T12:03:15;3;2;
55518;PMS5003;41724;51.176;-0.708;2024-01-07T12:05:42;2;2;
55518;PMS5003;41724;51.176;-0.708;2024-01-07T12:08:09;5;4;
55518;PMS5003;41724;51.176;-0.708;2024-01-07T12:10:37;2;2;
55518;PMS5003;41724;51.176;-0.708;2024-01-07T12:13:04;3;3;
55518;PMS5003;41724;51.176;-0.708;2024-01-07T12:15:31;4;4;
55518;PMS5003;41724;51.176;-0.708;2024-01-07T12:17:59;3;3;
55518;PMS5003;41724;51.176;-0.708;2024-01-07T12:20:26;1;1;
55518;PMS5003;41724;51.176;-0.708;2024-01-07T12:22:56;1;1;
55518;PMS5003;41724;51.176;-0.708;2024-01-07T12:25:23;3;2;
55518;PMS5003;41724;51.176;-0.708;2024-01-07T12:27:50;1;1;
55518;PMS5003;41724;51.176;-0.708;2024-01-07T12:30:19;3;2;
55518;PMS5003;41724;51.176;-0.708;2024-01-07T12:32:46;2;2;
55518;PMS5003;41724;51.176;-0.708;2024-01-07T12:35:14;1;1;
55518;PMS5003;41724;51.176;-0.708;2024-01-07T12:37:41;2;2;
55518;PMS5003;41724;51.176;-0.708;2024-01-07T12:40:09;3;3;
55518;PMS5003;41724;51.176;-0.708;2024-01-07T12:42:38;2;2;
55518;PMS5003;41724;51.176;-0.708;2024-01-07T12:45:06;3;3;
55518;PMS5003;41724;51.176;-0.708;2024-01-07T12:47:33;2;2;
55518;PMS5003;41724;51.176;-0.708;2024-01-07T12:50:00;2;2;
55518;PMS5003;41724;51.176;-0.708;2024-01-07T12:52:28;3;2;
55518;PMS5003;41724;51.176;-0.708;2024-01-07T12:54:55;2;2;
55518;PMS5003;41724;51.176;-0.708;2024-01-07T12:57:22;3;2;
55518;PMS5003;41724;51.176;-0.708;2024-01-07T12:59:49;3;2;
55518;PMS5003;41724;51.176;-0.708;2024-01-07T13:02:17;4;3;
55518;PMS5003;41724;51.176;-0.708;2024-01-07T13:04:44;3;3;
55518;PMS5003;41724;51.176;-0.708;2024-01-07T13:07:11;3;3;
55518;PMS5003;41724;51.176;-0.708;2024-01-07T13:09:38;3;3;
55518;PMS5003;41724;51.176;-0.708;2024-01-07T13:12:06;3;3;
55518;PMS5003;41724;51.176;-0.708;2024-01-07T13:14:33;7;6;
55518;PMS5003;41724;51.176;-0.708;2024-01-07T13:17:00;5;4;
55518;PMS5003;41724;51.176;-0.708;2024-01-07T13:19:27;4;4;
55518;PMS5003;41724;51.176;-0.708;2024-01-07T13:21:54;5;5;
55518;PMS5003;41724;51.176;-0.708;2024-01-07T13:24:22;3;3;
55518;PMS5003;41724;51.176;-0.708;2024-01-07T13:26:49;6;6;
55518;PMS5003;41724;51.176;-0.708;2024-01-07T13:29:16;3;3;
55518;PMS5003;41724;51.176;-0.708;2024-01-07T13:31:43;2;2;
55518;PMS5003;41724;51.176;-0.708;2024-01-07T13:34:10;1;1;
55518;PMS5003;41724;51.176;-0.708;2024-01-07T13:36:37;5;5;
55518;PMS5003;41724;51.176;-0.708;2024-01-07T13:39:05;4;4;
55518;PMS5003;41724;51.176;-0.708;2024-01-07T13:41:32;6;5;
55518;PMS5003;41724;51.176;-0.708;2024-01-07T13:43:59;4;4;
55518;PMS5003;41724;51.176;-0.708;2024-01-07T13:46:26;4;2;
55518;PMS5003;41724;51.176;-0.708;2024-01-07T13:48:53;4;4;
55518;PMS5003;41724;51.176;-0.708;2024-01-07T13:51:21;5;4;
55518;PMS5003;41724;51.176;-0.708;2024-01-07T13:53:48;5;3;
55518;PMS5003;41724;51.176;-0.708;2024-01-07T13:56:15;4;4;
55518;PMS5003;41724;51.176;-0.708;2024-01-07T13:58:42;4;2;
55518;PMS5003;41724;51.176;-0.708;2024-01-07T14:01:09;4;4;
55518;PMS5003;41724;51.176;-0.708;2024-01-07T14:03:36;5;3;
55518;PMS5003;41724;51.176;-0.708;2024-01-07T14:06:04;4;3;
55518;PMS5003;41724;51.176;-0.708;2024-01-07T14:08:31;3;3;
55518;PMS5003;41724;51.176;-0.708;2024-01-07T14:10:58;4;4;
55518;PMS5003;41724;51.176;-0.708;2024-01-07T14:13:25;4;3;
55518;PMS5003;41724;51.176;-0.708;2024-01-07T14:15:52;5;5;
55518;PMS5003;41724;51.176;-0.708;2024-01-07T14:18:19;4;4;
55518;PMS5003;41724;51.176;-0.708;2024-01-07T14:20:47;5;4;
55518;PMS5003;41724;51.176;-0.708;2024-01-07T14:23:14;5;4;
55518;PMS5003;41724;51.176;-0.708;2024-01-07T14:25:41;6;6;
55518;PMS5003;41724;51.176;-0.708;2024-01-07T14:28:08;6;5;
55518;PMS5003;41724;51.176;-0.708;2024-01-07T14:30:35;5;4;
55518;PMS5003;41724;51.176;-0.708;2024-01-07T14:33:03;4;3;
55518;PMS5003;41724;51.176;-0.708;2024-01-07T14:35:30;2;2;
55518;PMS5003;41724;51.176;-0.708;2024-01-07T14:37:58;2;1;
55518;PMS5003;41724;51.176;-0.708;2024-01-07T14:40:25;4;2;
55518;PMS5003;41724;51.176;-0.708;2024-01-07T14:42:52;2;2;
55518;PMS5003;41724;51.176;-0.708;2024-01-07T14:45:19;5;4;
55518;PMS5003;41724;51.176;-0.708;2024-01-07T14:47:47;4;4;
55518;PMS5003;41724;51.176;-0.708;2024-01-07T14:50:14;3;3;
55518;PMS5003;41724;51.176;-0.708;2024-01-07T14:52:41;4;4;
55518;PMS5003;41724;51.176;-0.708;2024-01-07T14:55:08;3;3;
55518;PMS5003;41724;51.176;-0.708;2024-01-07T14:57:35;5;5;
55518;PMS5003;41724;51.176;-0.708;2024-01-07T15:00:03;5;4;
55518;PMS5003;41724;51.176;-0.708;2024-01-07T15:02:31;5;5;
55518;PMS5003;41724;51.176;-0.708;2024-01-07T15:04:58;4;4;
55518;PMS5003;41724;51.176;-0.708;2024-01-07T15:07:25;4;4;
55518;PMS5003;41724;51.176;-0.708;2024-01-07T15:09:52;3;3;
55518;PMS5003;41724;51.176;-0.708;2024-01-07T15:12:20;4;4;
55518;PMS5003;41724;51.176;-0.708;2024-01-07T15:14:47;5;5;
55518;PMS5003;41724;51.176;-0.708;2024-01-07T15:17:14;5;3;
55518;PMS5003;41724;51.176;-0.708;2024-01-07T15:19:41;4;4;
55518;PMS5003;41724;51.176;-0.708;2024-01-07T15:22:08;6;5;
55518;PMS5003;41724;51.176;-0.708;2024-01-07T15:24:36;6;6;
55518;PMS5003;41724;51.176;-0.708;2024-01-07T15:27:03;5;4;
55518;PMS5003;41724;51.176;-0.708;2024-01-07T15:29:30;3;3;
55518;PMS5003;41724;51.176;-0.708;2024-01-07T15:31:57;5;5;
55518;PMS5003;41724;51.176;-0.708;2024-01-07T15:34:25;7;6;
55518;PMS5003;41724;51.176;-0.708;2024-01-07T15:36:52;4;4;
55518;PMS5003;41724;51.176;-0.708;2024-01-07T15:39:19;3;3;
55518;PMS5003;41724;51.176;-0.708;2024-01-07T15:41:46;5;4;
55518;PMS5003;41724;51.176;-0.708;2024-01-07T15:44:14;6;5;
55518;PMS5003;41724;51.176;-0.708;2024-01-07T15:46:41;5;5;
55518;PMS5003;41724;51.176;-0.708;2024-01-07T15:49:08;3;3;
55518;PMS5003;41724;51.176;-0.708;2024-01-07T15:51:35;4;4;
55518;PMS5003;41724;51.176;-0.708;2024-01-07T15:54:02;4;4;
55518;PMS5003;41724;51.176;-0.708;2024-01-07T15:56:30;7;5;
55518;PMS5003;41724;51.176;-0.708;2024-01-07T15:58:57;7;7;
55518;PMS5003;41724;51.176;-0.708;2024-01-07T16:01:24;7;5;
55518;PMS5003;41724;51.176;-0.708;2024-01-07T16:03:51;7;6;
55518;PMS5003;41724;51.176;-0.708;2024-01-07T16:06:18;7;7;
55518;PMS5003;41724;51.176;-0.708;2024-01-07T16:08:46;7;6;
55518;PMS5003;41724;51.176;-0.708;2024-01-07T16:11:13;5;5;
55518;PMS5003;41724;51.176;-0.708;2024-01-07T16:13:40;5;5;
55518;PMS5003;41724;51.176;-0.708;2024-01-07T16:16:07;5;5;
55518;PMS5003;41724;51.176;-0.708;2024-01-07T16:18:35;7;5;
55518;PMS5003;41724;51.176;-0.708;2024-01-07T16:21:02;4;4;
55518;PMS5003;41724;51.176;-0.708;2024-01-07T16:23:29;5;4;
55518;PMS5003;41724;51.176;-0.708;2024-01-07T16:25:56;6;6;
55518;PMS5003;41724;51.176;-0.708;2024-01-07T16:28:24;5;5;
55518;PMS5003;41724;51.176;-0.708;2024-01-07T16:30:51;10;7;
55518;PMS5003;41724;51.176;-0.708;2024-01-07T16:33:18;8;5;
55518;PMS5003;41724;51.176;-0.708;2024-01-07T16:35:45;5;4;